sensor_id;sensor_type;location;lat;lon;timestamp;P1;durP1;ratioP1;P2;durP2;ratioP2
4525;SDS011;2275;52.208;8.804;2022-10-31T00:01:32;35.75;;;18.33;;
4525;SDS011;2275;52.208;8.804;2022-10-31T00:03:58;27.70;;;17.40;;
4525;SDS011;2275;52.208;8.804;2022-10-31T00:06:25;31.33;;;17.37;;
4525;SDS011;2275;52.208;8.804;2022-10-31T00:08:54;32.47;;;19.17;;
4525;SDS011;2275;52.208;8.804;2022-10-31T00:11:20;27.67;;;17.12;;
4525;SDS011;2275;52.208;8.804;2022-10-31T00:13:47;31.45;;;16.10;;
4525;SDS011;2275;52.208;8.804;2022-10-31T00:16:15;34.42;;;16.70;;
4525;SDS011;2275;52.208;8.804;2022-10-31T00:18:42;29.80;;;17.05;;
4525;SDS011;2275;52.208;8.804;2022-10-31T00:23:43;30.77;;;17.85;;
4525;SDS011;2275;52.208;8.804;2022-10-31T00:26:10;36.40;;;17.30;;
4525;SDS011;2275;52.208;8.804;2022-10-31T00:28:37;32.85;;;18.10;;
4525;SDS011;2275;52.208;8.804;2022-10-31T00:31:06;31.60;;;17.85;;
4525;SDS011;2275;52.208;8.804;2022-10-31T00:33:33;28.20;;;19.42;;
4525;SDS011;2275;52.208;8.804;2022-10-31T00:35:59;38.05;;;18.55;;
4525;SDS011;2275;52.208;8.804;2022-10-31T00:38:26;29.90;;;18.45;;
4525;SDS011;2275;52.208;8.804;2022-10-31T00:40:53;31.77;;;17.77;;
4525;SDS011;2275;52.208;8.804;2022-10-31T00:43:20;29.42;;;18.40;;
4525;SDS011;2275;52.208;8.804;2022-10-31T00:45:48;29.12;;;18.67;;
4525;SDS011;2275;52.208;8.804;2022-10-31T00:48:26;30.50;;;18.50;;
4525;SDS011;2275;52.208;8.804;2022-10-31T00:51:09;27.67;;;17.77;;
4525;SDS011;2275;52.208;8.804;2022-10-31T00:53:41;28.25;;;17.10;;
4525;SDS011;2275;52.208;8.804;2022-10-31T00:56:08;29.83;;;17.45;;
4525;SDS011;2275;52.208;8.804;2022-10-31T00:58:35;33.78;;;17.33;;
4525;SDS011;2275;52.208;8.804;2022-10-31T01:01:03;28.95;;;17.33;;
4525;SDS011;2275;52.208;8.804;2022-10-31T01:03:32;33.75;;;20.20;;
4525;SDS011;2275;52.208;8.804;2022-10-31T01:06:01;26.75;;;16.77;;
4525;SDS011;2275;52.208;8.804;2022-10-31T01:08:27;30.42;;;19.62;;
4525;SDS011;2275;52.208;8.804;2022-10-31T01:11:00;31.45;;;19.37;;
4525;SDS011;2275;52.208;8.804;2022-10-31T01:13:30;31.62;;;18.87;;
4525;SDS011;2275;52.208;8.804;2022-10-31T01:15:58;26.52;;;16.95;;
4525;SDS011;2275;52.208;8.804;2022-10-31T01:18:25;27.35;;;17.00;;
4525;SDS011;2275;52.208;8.804;2022-10-31T01:20:57;31.05;;;17.83;;
4525;SDS011;2275;52.208;8.804;2022-10-31T01:23:25;36.10;;;18.77;;
4525;SDS011;2275;52.208;8.804;2022-10-31T01:26:00;29.20;;;18.17;;
4525;SDS011;2275;52.208;8.804;2022-10-31T01:28:29;34.72;;;19.35;;
4525;SDS011;2275;52.208;8.804;2022-10-31T01:30:59;31.33;;;18.48;;
4525;SDS011;2275;52.208;8.804;2022-10-31T01:33:23;29.50;;;17.15;;
4525;SDS011;2275;52.208;8.804;2022-10-31T01:35:50;33.67;;;17.37;;
4525;SDS011;2275;52.208;8.804;2022-10-31T01:38:17;31.02;;;19.42;;
4525;SDS011;2275;52.208;8.804;2022-10-31T01:40:45;27.98;;;17.75;;
4525;SDS011;2275;52.208;8.804;2022-10-31T01:43:13;33.90;;;16.77;;
4525;SDS011;2275;52.208;8.804;2022-10-31T01:45:40;31.70;;;18.80;;
4525;SDS011;2275;52.208;8.804;2022-10-31T01:48:11;30.55;;;18.60;;
4525;SDS011;2275;52.208;8.804;2022-10-31T01:50:38;37.05;;;18.02;;
4525;SDS011;2275;52.208;8.804;2022-10-31T01:53:05;35.88;;;17.75;;
4525;SDS011;2275;52.208;8.804;2022-10-31T01:55:32;34.92;;;17.65;;
4525;SDS011;2275;52.208;8.804;2022-10-31T01:58:02;35.33;;;18.87;;
4525;SDS011;2275;52.208;8.804;2022-10-31T02:00:28;31.20;;;17.87;;
4525;SDS011;2275;52.208;8.804;2022-10-31T02:02:55;33.03;;;18.70;;
4525;SDS011;2275;52.208;8.804;2022-10-31T02:05:23;34.75;;;19.80;;
4525;SDS011;2275;52.208;8.804;2022-10-31T02:07:53;37.85;;;18.15;;
4525;SDS011;2275;52.208;8.804;2022-10-31T02:10:21;34.37;;;18.40;;
4525;SDS011;2275;52.208;8.804;2022-10-31T02:12:46;30.17;;;19.00;;
4525;SDS011;2275;52.208;8.804;2022-10-31T02:15:13;38.13;;;19.05;;
4525;SDS011;2275;52.208;8.804;2022-10-31T02:17:40;34.88;;;17.77;;
4525;SDS011;2275;52.208;8.804;2022-10-31T02:20:12;27.65;;;16.65;;
4525;SDS011;2275;52.208;8.804;2022-10-31T02:23:08;27.80;;;16.70;;
4525;SDS011;2275;52.208;8.804;2022-10-31T02:25:41;35.40;;;19.70;;
4525;SDS011;2275;52.208;8.804;2022-10-31T02:28:15;36.85;;;18.33;;
4525;SDS011;2275;52.208;8.804;2022-10-31T02:30:40;33.28;;;18.30;;
4525;SDS011;2275;52.208;8.804;2022-10-31T02:36:17;29.83;;;17.58;;
4525;SDS011;2275;52.208;8.804;2022-10-31T02:38:37;30.75;;;17.40;;
4525;SDS011;2275;52.208;8.804;2022-10-31T02:41:11;36.67;;;16.27;;
4525;SDS011;2275;52.208;8.804;2022-10-31T02:43:40;30.20;;;18.10;;
4525;SDS011;2275;52.208;8.804;2022-10-31T02:46:09;29.87;;;17.50;;
4525;SDS011;2275;52.208;8.804;2022-10-31T02:48:37;28.12;;;17.55;;
4525;SDS011;2275;52.208;8.804;2022-10-31T02:51:04;29.60;;;17.67;;
4525;SDS011;2275;52.208;8.804;2022-10-31T02:53:33;30.48;;;19.65;;
4525;SDS011;2275;52.208;8.804;2022-10-31T02:56:01;33.30;;;18.05;;
4525;SDS011;2275;52.208;8.804;2022-10-31T02:58:28;43.60;;;18.55;;
4525;SDS011;2275;52.208;8.804;2022-10-31T03:01:05;28.77;;;17.87;;
4525;SDS011;2275;52.208;8.804;2022-10-31T03:06:32;29.60;;;19.15;;
4525;SDS011;2275;52.208;8.804;2022-10-31T03:11:43;27.75;;;17.02;;
4525;SDS011;2275;52.208;8.804;2022-10-31T03:14:21;36.03;;;17.90;;
4525;SDS011;2275;52.208;8.804;2022-10-31T03:16:52;29.37;;;18.80;;
4525;SDS011;2275;52.208;8.804;2022-10-31T03:19:25;31.55;;;18.65;;
4525;SDS011;2275;52.208;8.804;2022-10-31T03:21:53;32.75;;;19.40;;
4525;SDS011;2275;52.208;8.804;2022-10-31T03:24:19;30.90;;;18.42;;
4525;SDS011;2275;52.208;8.804;2022-10-31T03:26:47;29.52;;;17.65;;
4525;SDS011;2275;52.208;8.804;2022-10-31T03:29:15;34.25;;;19.62;;
4525;SDS011;2275;52.208;8.804;2022-10-31T03:31:44;33.83;;;19.70;;
4525;SDS011;2275;52.208;8.804;2022-10-31T03:34:11;31.25;;;18.25;;
4525;SDS011;2275;52.208;8.804;2022-10-31T03:36:38;31.58;;;19.23;;
4525;SDS011;2275;52.208;8.804;2022-10-31T03:39:07;30.30;;;17.40;;
4525;SDS011;2275;52.208;8.804;2022-10-31T03:41:35;32.60;;;20.23;;
4525;SDS011;2275;52.208;8.804;2022-10-31T03:44:03;31.77;;;19.87;;
4525;SDS011;2275;52.208;8.804;2022-10-31T03:46:29;36.20;;;19.05;;
4525;SDS011;2275;52.208;8.804;2022-10-31T03:48:56;39.00;;;19.33;;
4525;SDS011;2275;52.208;8.804;2022-10-31T03:51:30;31.02;;;20.10;;
4525;SDS011;2275;52.208;8.804;2022-10-31T03:54:03;30.17;;;18.45;;
4525;SDS011;2275;52.208;8.804;2022-10-31T03:56:37;34.80;;;17.23;;
4525;SDS011;2275;52.208;8.804;2022-10-31T03:59:07;33.65;;;19.58;;
4525;SDS011;2275;52.208;8.804;2022-10-31T04:01:34;32.67;;;17.95;;
4525;SDS011;2275;52.208;8.804;2022-10-31T04:04:00;31.67;;;18.23;;
4525;SDS011;2275;52.208;8.804;2022-10-31T04:06:28;30.52;;;16.00;;
4525;SDS011;2275;52.208;8.804;2022-10-31T04:08:56;26.20;;;16.23;;
4525;SDS011;2275;52.208;8.804;2022-10-31T04:11:23;31.95;;;17.23;;
4525;SDS011;2275;52.208;8.804;2022-10-31T04:13:50;31.10;;;17.12;;
4525;SDS011;2275;52.208;8.804;2022-10-31T04:16:17;29.12;;;17.35;;
4525;SDS011;2275;52.208;8.804;2022-10-31T04:18:44;30.95;;;16.30;;
4525;SDS011;2275;52.208;8.804;2022-10-31T04:21:12;33.85;;;17.40;;
4525;SDS011;2275;52.208;8.804;2022-10-31T04:23:38;32.17;;;19.60;;
4525;SDS011;2275;52.208;8.804;2022-10-31T04:26:08;31.02;;;17.85;;
4525;SDS011;2275;52.208;8.804;2022-10-31T04:28:35;35.15;;;17.77;;
4525;SDS011;2275;52.208;8.804;2022-10-31T04:31:02;31.95;;;19.08;;
4525;SDS011;2275;52.208;8.804;2022-10-31T04:33:28;31.10;;;18.65;;
4525;SDS011;2275;52.208;8.804;2022-10-31T04:35:55;32.13;;;17.83;;
4525;SDS011;2275;52.208;8.804;2022-10-31T04:38:23;36.92;;;19.90;;
4525;SDS011;2275;52.208;8.804;2022-10-31T04:40:50;34.58;;;18.75;;
4525;SDS011;2275;52.208;8.804;2022-10-31T04:43:17;37.40;;;20.58;;
4525;SDS011;2275;52.208;8.804;2022-10-31T04:45:44;33.97;;;19.27;;
4525;SDS011;2275;52.208;8.804;2022-10-31T04:48:12;31.15;;;18.67;;
4525;SDS011;2275;52.208;8.804;2022-10-31T04:50:39;36.75;;;20.12;;
4525;SDS011;2275;52.208;8.804;2022-10-31T04:53:09;33.65;;;20.42;;
4525;SDS011;2275;52.208;8.804;2022-10-31T04:55:36;31.50;;;19.33;;
4525;SDS011;2275;52.208;8.804;2022-10-31T04:58:03;34.88;;;18.12;;
4525;SDS011;2275;52.208;8.804;2022-10-31T05:00:30;30.67;;;17.48;;
4525;SDS011;2275;52.208;8.804;2022-10-31T05:02:58;36.50;;;19.25;;
4525;SDS011;2275;52.208;8.804;2022-10-31T05:05:27;35.03;;;17.95;;
4525;SDS011;2275;52.208;8.804;2022-10-31T05:07:52;33.45;;;20.00;;
4525;SDS011;2275;52.208;8.804;2022-10-31T05:10:20;34.03;;;18.05;;
4525;SDS011;2275;52.208;8.804;2022-10-31T05:12:47;42.47;;;17.85;;
4525;SDS011;2275;52.208;8.804;2022-10-31T05:15:13;31.55;;;17.27;;
4525;SDS011;2275;52.208;8.804;2022-10-31T05:17:40;33.00;;;17.83;;
4525;SDS011;2275;52.208;8.804;2022-10-31T05:22:49;35.50;;;19.55;;
4525;SDS011;2275;52.208;8.804;2022-10-31T05:25:21;27.48;;;17.62;;
4525;SDS011;2275;52.208;8.804;2022-10-31T05:30:35;38.15;;;22.00;;
4525;SDS011;2275;52.208;8.804;2022-10-31T05:33:02;33.22;;;19.67;;
4525;SDS011;2275;52.208;8.804;2022-10-31T05:35:30;38.22;;;18.58;;
4525;SDS011;2275;52.208;8.804;2022-10-31T05:37:56;36.00;;;20.10;;
4525;SDS011;2275;52.208;8.804;2022-10-31T05:40:26;34.28;;;19.17;;
4525;SDS011;2275;52.208;8.804;2022-10-31T05:42:53;36.67;;;21.00;;
4525;SDS011;2275;52.208;8.804;2022-10-31T05:45:19;32.58;;;18.25;;
4525;SDS011;2275;52.208;8.804;2022-10-31T05:47:52;32.33;;;19.27;;
4525;SDS011;2275;52.208;8.804;2022-10-31T05:50:19;33.05;;;19.30;;
4525;SDS011;2275;52.208;8.804;2022-10-31T05:52:46;45.55;;;26.20;;
4525;SDS011;2275;52.208;8.804;2022-10-31T05:55:17;42.55;;;21.12;;
4525;SDS011;2275;52.208;8.804;2022-10-31T05:57:52;33.58;;;19.30;;
4525;SDS011;2275;52.208;8.804;2022-10-31T06:00:19;37.28;;;21.80;;
4525;SDS011;2275;52.208;8.804;2022-10-31T06:02:46;41.55;;;20.73;;
4525;SDS011;2275;52.208;8.804;2022-10-31T06:05:13;40.00;;;20.98;;
4525;SDS011;2275;52.208;8.804;2022-10-31T06:07:40;32.90;;;19.75;;
4525;SDS011;2275;52.208;8.804;2022-10-31T06:10:09;42.05;;;22.27;;
4525;SDS011;2275;52.208;8.804;2022-10-31T06:12:38;43.15;;;21.17;;
4525;SDS011;2275;52.208;8.804;2022-10-31T06:15:06;40.97;;;20.77;;
4525;SDS011;2275;52.208;8.804;2022-10-31T06:17:33;36.25;;;20.15;;
4525;SDS011;2275;52.208;8.804;2022-10-31T06:20:00;39.33;;;20.67;;
4525;SDS011;2275;52.208;8.804;2022-10-31T06:22:27;33.63;;;21.10;;
4525;SDS011;2275;52.208;8.804;2022-10-31T06:24:54;30.27;;;19.35;;
4525;SDS011;2275;52.208;8.804;2022-10-31T06:27:21;36.92;;;19.20;;
4525;SDS011;2275;52.208;8.804;2022-10-31T06:29:48;33.92;;;19.10;;
4525;SDS011;2275;52.208;8.804;2022-10-31T06:32:15;35.38;;;19.60;;
4525;SDS011;2275;52.208;8.804;2022-10-31T06:34:42;43.25;;;21.60;;
4525;SDS011;2275;52.208;8.804;2022-10-31T06:37:10;55.43;;;25.70;;
4525;SDS011;2275;52.208;8.804;2022-10-31T06:39:36;49.85;;;21.25;;
4525;SDS011;2275;52.208;8.804;2022-10-31T06:42:03;44.22;;;19.98;;
4525;SDS011;2275;52.208;8.804;2022-10-31T06:44:31;53.95;;;24.15;;
4525;SDS011;2275;52.208;8.804;2022-10-31T06:46:58;69.43;;;25.52;;
4525;SDS011;2275;52.208;8.804;2022-10-31T06:49:25;52.17;;;23.67;;
4525;SDS011;2275;52.208;8.804;2022-10-31T06:51:53;54.20;;;26.37;;
4525;SDS011;2275;52.208;8.804;2022-10-31T06:54:20;46.28;;;22.75;;
4525;SDS011;2275;52.208;8.804;2022-10-31T06:56:47;42.20;;;21.73;;
4525;SDS011;2275;52.208;8.804;2022-10-31T06:59:14;45.58;;;22.25;;
4525;SDS011;2275;52.208;8.804;2022-10-31T07:01:41;41.42;;;23.02;;
4525;SDS011;2275;52.208;8.804;2022-10-31T07:04:10;45.47;;;24.70;;
4525;SDS011;2275;52.208;8.804;2022-10-31T07:06:36;47.45;;;24.40;;
4525;SDS011;2275;52.208;8.804;2022-10-31T07:09:05;49.60;;;23.33;;
4525;SDS011;2275;52.208;8.804;2022-10-31T07:11:34;50.95;;;25.45;;
4525;SDS011;2275;52.208;8.804;2022-10-31T07:14:02;43.97;;;21.83;;
4525;SDS011;2275;52.208;8.804;2022-10-31T07:16:30;39.33;;;21.95;;
4525;SDS011;2275;52.208;8.804;2022-10-31T07:19:02;45.67;;;22.00;;
4525;SDS011;2275;52.208;8.804;2022-10-31T07:21:29;38.05;;;22.02;;
4525;SDS011;2275;52.208;8.804;2022-10-31T07:23:56;39.75;;;23.30;;
4525;SDS011;2275;52.208;8.804;2022-10-31T07:26:23;35.15;;;19.98;;
4525;SDS011;2275;52.208;8.804;2022-10-31T07:28:51;36.38;;;19.87;;
4525;SDS011;2275;52.208;8.804;2022-10-31T07:31:18;43.90;;;23.67;;
4525;SDS011;2275;52.208;8.804;2022-10-31T07:33:45;42.92;;;21.00;;
4525;SDS011;2275;52.208;8.804;2022-10-31T07:36:12;36.00;;;20.27;;
4525;SDS011;2275;52.208;8.804;2022-10-31T07:38:39;40.97;;;23.47;;
4525;SDS011;2275;52.208;8.804;2022-10-31T07:41:06;40.58;;;20.77;;
4525;SDS011;2275;52.208;8.804;2022-10-31T07:43:33;40.40;;;21.15;;
4525;SDS011;2275;52.208;8.804;2022-10-31T07:46:00;40.50;;;19.83;;
4525;SDS011;2275;52.208;8.804;2022-10-31T07:48:28;40.20;;;21.58;;
4525;SDS011;2275;52.208;8.804;2022-10-31T07:50:55;40.53;;;22.45;;
4525;SDS011;2275;52.208;8.804;2022-10-31T07:53:22;49.00;;;26.33;;
4525;SDS011;2275;52.208;8.804;2022-10-31T07:55:48;46.95;;;23.70;;
4525;SDS011;2275;52.208;8.804;2022-10-31T07:58:16;42.75;;;24.80;;
4525;SDS011;2275;52.208;8.804;2022-10-31T08:00:44;43.25;;;23.33;;
4525;SDS011;2275;52.208;8.804;2022-10-31T08:03:11;47.83;;;24.52;;
4525;SDS011;2275;52.208;8.804;2022-10-31T08:05:37;44.70;;;24.42;;
4525;SDS011;2275;52.208;8.804;2022-10-31T08:08:04;44.58;;;23.58;;
4525;SDS011;2275;52.208;8.804;2022-10-31T08:10:32;41.10;;;23.62;;
4525;SDS011;2275;52.208;8.804;2022-10-31T08:13:02;45.83;;;23.05;;
4525;SDS011;2275;52.208;8.804;2022-10-31T08:15:29;45.92;;;24.10;;
4525;SDS011;2275;52.208;8.804;2022-10-31T08:17:58;42.15;;;22.75;;
4525;SDS011;2275;52.208;8.804;2022-10-31T08:20:25;40.25;;;24.17;;
4525;SDS011;2275;52.208;8.804;2022-10-31T08:22:54;39.35;;;22.40;;
4525;SDS011;2275;52.208;8.804;2022-10-31T08:25:20;39.20;;;20.85;;
4525;SDS011;2275;52.208;8.804;2022-10-31T08:27:50;39.67;;;22.42;;
4525;SDS011;2275;52.208;8.804;2022-10-31T08:30:17;38.53;;;21.27;;
4525;SDS011;2275;52.208;8.804;2022-10-31T08:32:44;45.97;;;20.80;;
4525;SDS011;2275;52.208;8.804;2022-10-31T08:35:11;36.45;;;21.37;;
4525;SDS011;2275;52.208;8.804;2022-10-31T08:37:38;30.52;;;19.55;;
4525;SDS011;2275;52.208;8.804;2022-10-31T08:40:05;36.80;;;19.25;;
4525;SDS011;2275;52.208;8.804;2022-10-31T08:42:34;38.80;;;20.57;;
4525;SDS011;2275;52.208;8.804;2022-10-31T08:45:01;36.65;;;21.10;;
4525;SDS011;2275;52.208;8.804;2022-10-31T08:47:28;31.95;;;18.33;;
4525;SDS011;2275;52.208;8.804;2022-10-31T08:49:55;49.70;;;20.90;;
4525;SDS011;2275;52.208;8.804;2022-10-31T08:52:23;38.42;;;18.62;;
4525;SDS011;2275;52.208;8.804;2022-10-31T08:54:50;42.60;;;20.08;;
4525;SDS011;2275;52.208;8.804;2022-10-31T08:57:17;34.97;;;18.60;;
4525;SDS011;2275;52.208;8.804;2022-10-31T08:59:44;33.35;;;19.95;;
4525;SDS011;2275;52.208;8.804;2022-10-31T09:02:11;44.50;;;21.58;;
4525;SDS011;2275;52.208;8.804;2022-10-31T09:04:38;39.10;;;21.87;;
4525;SDS011;2275;52.208;8.804;2022-10-31T09:07:05;38.00;;;22.02;;
4525;SDS011;2275;52.208;8.804;2022-10-31T09:09:32;42.05;;;23.80;;
4525;SDS011;2275;52.208;8.804;2022-10-31T09:11:59;53.08;;;23.10;;
4525;SDS011;2275;52.208;8.804;2022-10-31T09:14:26;43.42;;;21.87;;
4525;SDS011;2275;52.208;8.804;2022-10-31T09:16:53;33.60;;;21.20;;
4525;SDS011;2275;52.208;8.804;2022-10-31T09:19:20;41.15;;;23.08;;
4525;SDS011;2275;52.208;8.804;2022-10-31T09:21:47;42.60;;;23.95;;
4525;SDS011;2275;52.208;8.804;2022-10-31T09:24:14;45.63;;;22.67;;
4525;SDS011;2275;52.208;8.804;2022-10-31T09:26:41;38.83;;;23.23;;
4525;SDS011;2275;52.208;8.804;2022-10-31T09:29:09;44.33;;;22.60;;
4525;SDS011;2275;52.208;8.804;2022-10-31T09:31:36;41.87;;;25.27;;
4525;SDS011;2275;52.208;8.804;2022-10-31T09:34:03;43.80;;;26.43;;
4525;SDS011;2275;52.208;8.804;2022-10-31T09:36:30;48.45;;;25.35;;
4525;SDS011;2275;52.208;8.804;2022-10-31T09:38:57;46.58;;;24.27;;
4525;SDS011;2275;52.208;8.804;2022-10-31T09:41:29;50.95;;;24.42;;
4525;SDS011;2275;52.208;8.804;2022-10-31T09:43:59;41.67;;;24.35;;
4525;SDS011;2275;52.208;8.804;2022-10-31T09:46:33;43.15;;;24.85;;
4525;SDS011;2275;52.208;8.804;2022-10-31T09:49:31;39.95;;;24.77;;
4525;SDS011;2275;52.208;8.804;2022-10-31T09:52:14;43.50;;;23.40;;
4525;SDS011;2275;52.208;8.804;2022-10-31T09:54:49;40.30;;;23.38;;
4525;SDS011;2275;52.208;8.804;2022-10-31T09:57:21;40.55;;;26.00;;
4525;SDS011;2275;52.208;8.804;2022-10-31T09:59:49;41.28;;;24.75;;
4525;SDS011;2275;52.208;8.804;2022-10-31T10:02:21;34.53;;;23.10;;
4525;SDS011;2275;52.208;8.804;2022-10-31T10:05:03;40.50;;;24.13;;
4525;SDS011;2275;52.208;8.804;2022-10-31T10:10:18;41.83;;;23.87;;
4525;SDS011;2275;52.208;8.804;2022-10-31T10:12:53;37.23;;;20.77;;
4525;SDS011;2275;52.208;8.804;2022-10-31T10:15:25;39.03;;;22.47;;
4525;SDS011;2275;52.208;8.804;2022-10-31T10:18:15;42.42;;;25.25;;
4525;SDS011;2275;52.208;8.804;2022-10-31T10:20:43;33.80;;;21.07;;
4525;SDS011;2275;52.208;8.804;2022-10-31T10:23:24;40.07;;;20.57;;
4525;SDS011;2275;52.208;8.804;2022-10-31T10:25:46;40.73;;;21.73;;
4525;SDS011;2275;52.208;8.804;2022-10-31T10:30:47;33.03;;;20.17;;
4525;SDS011;2275;52.208;8.804;2022-10-31T10:33:22;33.20;;;20.10;;
4525;SDS011;2275;52.208;8.804;2022-10-31T10:35:49;30.33;;;20.37;;
4525;SDS011;2275;52.208;8.804;2022-10-31T10:41:07;30.17;;;19.67;;
4525;SDS011;2275;52.208;8.804;2022-10-31T10:43:34;34.40;;;21.27;;
4525;SDS011;2275;52.208;8.804;2022-10-31T10:46:16;29.87;;;19.73;;
4525;SDS011;2275;52.208;8.804;2022-10-31T10:51:47;32.60;;;19.95;;
4525;SDS011;2275;52.208;8.804;2022-10-31T10:54:21;32.47;;;19.67;;
4525;SDS011;2275;52.208;8.804;2022-10-31T10:57:41;33.17;;;20.00;;
4525;SDS011;2275;52.208;8.804;2022-10-31T10:59:52;35.60;;;18.80;;
4525;SDS011;2275;52.208;8.804;2022-10-31T11:02:20;38.50;;;19.20;;
4525;SDS011;2275;52.208;8.804;2022-10-31T11:07:22;47.57;;;22.67;;
4525;SDS011;2275;52.208;8.804;2022-10-31T11:10:02;36.03;;;21.50;;
4525;SDS011;2275;52.208;8.804;2022-10-31T11:12:24;35.07;;;18.83;;
4525;SDS011;2275;52.208;8.804;2022-10-31T11:14:51;38.45;;;20.75;;
4525;SDS011;2275;52.208;8.804;2022-10-31T11:17:22;30.37;;;18.23;;
4525;SDS011;2275;52.208;8.804;2022-10-31T11:19:58;30.67;;;18.17;;
4525;SDS011;2275;52.208;8.804;2022-10-31T11:22:16;32.13;;;19.27;;
4525;SDS011;2275;52.208;8.804;2022-10-31T11:24:43;33.10;;;20.23;;
4525;SDS011;2275;52.208;8.804;2022-10-31T11:27:25;32.53;;;19.83;;
4525;SDS011;2275;52.208;8.804;2022-10-31T11:29:53;32.63;;;17.40;;
4525;SDS011;2275;52.208;8.804;2022-10-31T11:32:22;28.27;;;16.70;;
4525;SDS011;2275;52.208;8.804;2022-10-31T11:34:51;39.63;;;24.20;;
4525;SDS011;2275;52.208;8.804;2022-10-31T11:37:32;28.57;;;18.00;;
4525;SDS011;2275;52.208;8.804;2022-10-31T11:40:03;35.00;;;19.73;;
4525;SDS011;2275;52.208;8.804;2022-10-31T11:42:29;39.33;;;20.45;;
4525;SDS011;2275;52.208;8.804;2022-10-31T11:44:55;35.80;;;20.63;;
4525;SDS011;2275;52.208;8.804;2022-10-31T11:47:25;30.47;;;17.00;;
4525;SDS011;2275;52.208;8.804;2022-10-31T11:49:51;34.00;;;18.87;;
4525;SDS011;2275;52.208;8.804;2022-10-31T11:52:33;31.70;;;17.70;;
4525;SDS011;2275;52.208;8.804;2022-10-31T11:55:13;30.77;;;17.50;;
4525;SDS011;2275;52.208;8.804;2022-10-31T12:05:40;32.37;;;16.77;;
4525;SDS011;2275;52.208;8.804;2022-10-31T12:08:09;29.70;;;16.47;;
4525;SDS011;2275;52.208;8.804;2022-10-31T12:13:28;28.55;;;17.10;;
4525;SDS011;2275;52.208;8.804;2022-10-31T12:15:53;30.35;;;17.37;;
4525;SDS011;2275;52.208;8.804;2022-10-31T12:21:11;34.00;;;17.40;;
4525;SDS011;2275;52.208;8.804;2022-10-31T12:26:40;35.47;;;18.52;;
4525;SDS011;2275;52.208;8.804;2022-10-31T12:29:14;40.10;;;20.37;;
4525;SDS011;2275;52.208;8.804;2022-10-31T12:31:45;25.17;;;15.30;;
4525;SDS011;2275;52.208;8.804;2022-10-31T12:36:58;39.80;;;18.33;;
4525;SDS011;2275;52.208;8.804;2022-10-31T12:39:39;24.87;;;15.20;;
4525;SDS011;2275;52.208;8.804;2022-10-31T12:45:12;28.35;;;16.35;;
4525;SDS011;2275;52.208;8.804;2022-10-31T12:47:57;29.87;;;14.30;;
4525;SDS011;2275;52.208;8.804;2022-10-31T12:50:56;27.60;;;13.80;;
4525;SDS011;2275;52.208;8.804;2022-10-31T12:53:14;26.10;;;12.97;;
4525;SDS011;2275;52.208;8.804;2022-10-31T12:55:41;22.57;;;13.43;;
4525;SDS011;2275;52.208;8.804;2022-10-31T12:58:10;26.73;;;13.40;;
4525;SDS011;2275;52.208;8.804;2022-10-31T13:00:41;22.52;;;13.40;;
4525;SDS011;2275;52.208;8.804;2022-10-31T13:03:26;21.92;;;13.18;;
4525;SDS011;2275;52.208;8.804;2022-10-31T13:05:58;26.37;;;12.97;;
4525;SDS011;2275;52.208;8.804;2022-10-31T13:08:26;23.40;;;12.67;;
4525;SDS011;2275;52.208;8.804;2022-10-31T13:13:31;26.90;;;12.53;;
4525;SDS011;2275;52.208;8.804;2022-10-31T13:18:51;26.27;;;14.73;;
4525;SDS011;2275;52.208;8.804;2022-10-31T13:21:21;30.53;;;15.07;;
4525;SDS011;2275;52.208;8.804;2022-10-31T13:23:49;21.90;;;11.43;;
4525;SDS011;2275;52.208;8.804;2022-10-31T13:26:19;19.77;;;12.17;;
4525;SDS011;2275;52.208;8.804;2022-10-31T13:31:27;23.20;;;11.50;;
4525;SDS011;2275;52.208;8.804;2022-10-31T13:33:56;66.47;;;41.70;;
4525;SDS011;2275;52.208;8.804;2022-10-31T13:36:33;25.30;;;11.83;;
4525;SDS011;2275;52.208;8.804;2022-10-31T13:39:08;22.77;;;12.00;;
4525;SDS011;2275;52.208;8.804;2022-10-31T13:41:43;19.70;;;10.20;;
4525;SDS011;2275;52.208;8.804;2022-10-31T13:44:14;17.87;;;10.00;;
4525;SDS011;2275;52.208;8.804;2022-10-31T13:46:51;18.10;;;9.90;;
4525;SDS011;2275;52.208;8.804;2022-10-31T13:49:21;19.90;;;10.57;;
4525;SDS011;2275;52.208;8.804;2022-10-31T13:52:11;26.25;;;13.20;;
4525;SDS011;2275;52.208;8.804;2022-10-31T13:54:40;23.57;;;12.90;;
4525;SDS011;2275;52.208;8.804;2022-10-31T13:57:41;19.40;;;12.77;;
4525;SDS011;2275;52.208;8.804;2022-10-31T14:00:02;22.60;;;10.47;;
4525;SDS011;2275;52.208;8.804;2022-10-31T14:02:31;24.13;;;10.80;;
4525;SDS011;2275;52.208;8.804;2022-10-31T14:05:00;23.43;;;10.73;;
4525;SDS011;2275;52.208;8.804;2022-10-31T14:07:30;19.33;;;9.60;;
4525;SDS011;2275;52.208;8.804;2022-10-31T14:10:03;18.70;;;9.90;;
4525;SDS011;2275;52.208;8.804;2022-10-31T14:15:18;20.20;;;10.10;;
4525;SDS011;2275;52.208;8.804;2022-10-31T14:17:48;19.40;;;9.60;;
4525;SDS011;2275;52.208;8.804;2022-10-31T14:20:21;16.27;;;9.07;;
4525;SDS011;2275;52.208;8.804;2022-10-31T14:22:48;16.80;;;9.83;;
4525;SDS011;2275;52.208;8.804;2022-10-31T14:27:50;21.90;;;9.97;;
4525;SDS011;2275;52.208;8.804;2022-10-31T14:30:17;20.77;;;8.83;;
4525;SDS011;2275;52.208;8.804;2022-10-31T14:32:44;22.77;;;8.83;;
4525;SDS011;2275;52.208;8.804;2022-10-31T14:35:13;18.57;;;9.43;;
4525;SDS011;2275;52.208;8.804;2022-10-31T14:37:49;18.62;;;9.55;;
4525;SDS011;2275;52.208;8.804;2022-10-31T14:41:38;18.87;;;9.83;;
4525;SDS011;2275;52.208;8.804;2022-10-31T14:43:20;24.93;;;9.97;;
4525;SDS011;2275;52.208;8.804;2022-10-31T14:45:57;18.75;;;8.40;;
4525;SDS011;2275;52.208;8.804;2022-10-31T14:48:42;22.42;;;10.77;;
4525;SDS011;2275;52.208;8.804;2022-10-31T14:51:18;13.97;;;7.77;;
4525;SDS011;2275;52.208;8.804;2022-10-31T14:53:49;17.67;;;7.90;;
4525;SDS011;2275;52.208;8.804;2022-10-31T14:56:21;18.23;;;8.10;;
4525;SDS011;2275;52.208;8.804;2022-10-31T14:58:57;16.33;;;9.03;;
4525;SDS011;2275;52.208;8.804;2022-10-31T15:01:26;15.23;;;7.65;;
4525;SDS011;2275;52.208;8.804;2022-10-31T15:03:51;15.40;;;7.30;;
4525;SDS011;2275;52.208;8.804;2022-10-31T15:06:19;21.70;;;9.47;;
4525;SDS011;2275;52.208;8.804;2022-10-31T15:08:47;21.70;;;9.87;;
4525;SDS011;2275;52.208;8.804;2022-10-31T15:11:15;17.42;;;8.70;;
4525;SDS011;2275;52.208;8.804;2022-10-31T15:13:49;17.70;;;8.77;;
4525;SDS011;2275;52.208;8.804;2022-10-31T15:18:59;15.80;;;9.23;;
4525;SDS011;2275;52.208;8.804;2022-10-31T15:21:25;18.70;;;10.52;;
4525;SDS011;2275;52.208;8.804;2022-10-31T15:23:52;25.43;;;11.50;;
4525;SDS011;2275;52.208;8.804;2022-10-31T15:26:20;22.87;;;11.80;;
4525;SDS011;2275;52.208;8.804;2022-10-31T15:28:46;25.67;;;12.80;;
4525;SDS011;2275;52.208;8.804;2022-10-31T15:31:14;21.50;;;11.40;;
4525;SDS011;2275;52.208;8.804;2022-10-31T15:33:41;22.35;;;12.35;;
4525;SDS011;2275;52.208;8.804;2022-10-31T15:36:17;19.20;;;9.90;;
4525;SDS011;2275;52.208;8.804;2022-10-31T15:38:55;18.13;;;10.10;;
4525;SDS011;2275;52.208;8.804;2022-10-31T15:41:29;22.23;;;11.90;;
4525;SDS011;2275;52.208;8.804;2022-10-31T15:44:04;20.08;;;11.93;;
4525;SDS011;2275;52.208;8.804;2022-10-31T15:46:31;21.62;;;12.45;;
4525;SDS011;2275;52.208;8.804;2022-10-31T15:49:03;18.47;;;9.90;;
4525;SDS011;2275;52.208;8.804;2022-10-31T15:51:32;25.10;;;12.23;;
4525;SDS011;2275;52.208;8.804;2022-10-31T15:53:59;18.53;;;9.40;;
4525;SDS011;2275;52.208;8.804;2022-10-31T15:56:28;25.45;;;12.05;;
4525;SDS011;2275;52.208;8.804;2022-10-31T15:58:55;21.25;;;10.57;;
4525;SDS011;2275;52.208;8.804;2022-10-31T16:01:23;18.90;;;10.17;;
4525;SDS011;2275;52.208;8.804;2022-10-31T16:06:25;18.83;;;11.30;;
4525;SDS011;2275;52.208;8.804;2022-10-31T16:08:52;17.15;;;10.18;;
4525;SDS011;2275;52.208;8.804;2022-10-31T16:11:35;19.27;;;10.30;;
4525;SDS011;2275;52.208;8.804;2022-10-31T16:14:04;18.17;;;11.00;;